createdAt,value
2022-08-17T00:02:26.182Z,100220.84
2022-08-17T00:05:31.517Z,100210.31
2022-08-17T00:08:46.045Z,100218.41
2022-08-17T00:12:41.924Z,100215.88
2022-08-17T00:15:13.380Z,100207.84
2022-08-17T00:19:01.957Z,100208.81
2022-08-17T00:22:29.848Z,100208.97
2022-08-17T00:25:02.107Z,100210.84
2022-08-17T00:28:04.443Z,100218.22
2022-08-17T00:31:08.477Z,100199.66
2022-08-17T00:34:10.579Z,100203.59
2022-08-17T00:37:12.921Z,100207.31
2022-08-17T00:40:15.814Z,100214.63
2022-08-17T00:43:42.298Z,100212.28
2022-08-17T00:46:44.910Z,100219.44
2022-08-17T00:49:47.293Z,100221.34
2022-08-17T00:52:55.329Z,100217.06
2022-08-17T00:56:01.057Z,100226.81
2022-08-17T00:59:05.493Z,100220.03
2022-08-17T01:02:09.637Z,100218.22
2022-08-17T01:05:20.770Z,100220.19
2022-08-17T01:08:25.973Z,100209.38
2022-08-17T01:11:30.647Z,100212.19
2022-08-17T01:14:32.957Z,100217.63
2022-08-17T01:17:35.155Z,100211.66
2022-08-17T01:20:48.045Z,100203.56
2022-08-17T01:23:50.529Z,100217.22
2022-08-17T01:26:52.842Z,100220.13
2022-08-17T01:30:58.439Z,100220.44
2022-08-17T01:33:31.113Z,100233.19
2022-08-17T01:36:33.215Z,100229.59
2022-08-17T01:39:39.194Z,100229.59
2022-08-17T01:43:07.404Z,100232.47
2022-08-17T01:46:10.457Z,100226.06
2022-08-17T01:49:12.813Z,100231.38
2022-08-17T01:52:15.857Z,100230.88
2022-08-17T01:55:27.102Z,100227.38
2022-08-17T01:58:29.704Z,100232.19
2022-08-17T02:01:33.760Z,100232.06
2022-08-17T02:04:36.204Z,100232.97
2022-08-17T02:07:59.999Z,100225.69
2022-08-17T02:11:04.260Z,100231.38
2022-08-17T02:14:13.908Z,100231.47
2022-08-17T02:17:16.244Z,100235.16
2022-08-17T02:20:18.436Z,100237.72
2022-08-17T02:23:42.640Z,100233.94
2022-08-17T02:26:46.248Z,100240.28
2022-08-17T02:29:48.550Z,100232.31
2022-08-17T02:32:54.216Z,100225.97
2022-08-17T02:35:57.856Z,100227.88
2022-08-17T02:39:01.677Z,100233.56
2022-08-17T02:42:04.830Z,100230.91
2022-08-17T02:45:15.683Z,100235.56
2022-08-17T02:48:30.451Z,100244.38
2022-08-17T02:51:34.893Z,100244.25
2022-08-17T02:54:40.318Z,100246.22
2022-08-17T02:57:44.393Z,100242.66
2022-08-17T03:00:48.238Z,100242.72
2022-08-17T03:03:50.335Z,100235.50
2022-08-17T03:06:52.799Z,100236.47
2022-08-17T03:09:55.969Z,100240.97
2022-08-17T03:12:58.837Z,100238.44
2022-08-17T03:16:00.933Z,100242.03
2022-08-17T03:19:03.276Z,100241.38
2022-08-17T03:22:34.702Z,100245.03
2022-08-17T03:25:33.529Z,100252.19
2022-08-17T03:28:39.585Z,100251.31
2022-08-17T03:31:41.777Z,100253.13
2022-08-17T03:34:43.759Z,100255.97
2022-08-17T03:37:46.063Z,100263.22
2022-08-17T03:40:58.470Z,100257.69
2022-08-17T03:44:02.158Z,100263.09
2022-08-17T03:47:22.972Z,100265.00
2022-08-17T03:50:43.677Z,100278.25
2022-08-17T03:54:10.343Z,100280.75
2022-08-17T03:57:13.395Z,100278.88
2022-08-17T04:00:15.596Z,100280.34
2022-08-17T04:03:18.282Z,100284.56
2022-08-17T04:06:20.943Z,100278.91
2022-08-17T04:09:23.289Z,100289.63
2022-08-17T04:12:30.574Z,100280.31
2022-08-17T04:15:33.587Z,100285.22
2022-08-17T04:18:35.632Z,100282.34
2022-08-17T04:21:38.009Z,100286.56
2022-08-17T04:24:40.067Z,100281.75
2022-08-17T04:27:42.315Z,100278.78
2022-08-17T04:30:45.446Z,100278.47
2022-08-17T04:33:47.856Z,100279.28
2022-08-17T04:36:50.450Z,100285.13
2022-08-17T04:40:13.031Z,100280.28
2022-08-17T04:43:18.598Z,100283.66
2022-08-17T04:46:24.479Z,100277.06
2022-08-17T04:49:26.531Z,100291.09
2022-08-17T04:52:29.675Z,100290.63
2022-08-17T04:55:45.706Z,100291.97
2022-08-17T04:58:50.307Z,100283.47
2022-08-17T05:01:52.626Z,100279.50
2022-08-17T05:04:54.923Z,100291.91
2022-08-17T05:08:02.742Z,100285.25
2022-08-17T05:11:05.536Z,100290.59
2022-08-17T05:14:07.551Z,100284.84
2022-08-17T05:17:11.488Z,100282.66
2022-08-17T05:20:13.772Z,100289.63
2022-08-17T05:23:18.511Z,100295.91
2022-08-17T05:26:26.256Z,100300.22
2022-08-17T05:29:35.076Z,100295.75
2022-08-17T05:32:40.295Z,100300.69
2022-08-17T05:35:47.251Z,100304.41
2022-08-17T05:38:50.549Z,100299.72
2022-08-17T05:41:52.878Z,100304.53
2022-08-17T05:44:57.923Z,100302.41
2022-08-17T05:48:00.188Z,100302.69
2022-08-17T05:51:15.689Z,100303.22
2022-08-17T05:54:42.911Z,100301.44
2022-08-17T05:58:04.272Z,100306.25
2022-08-17T06:01:26.576Z,100311.31
2022-08-17T06:04:36.114Z,100305.16
2022-08-17T06:07:57.048Z,100303.63
2022-08-17T06:11:20.556Z,100303.25
2022-08-17T06:14:46.606Z,100302.28
2022-08-17T06:17:53.029Z,100311.31
2022-08-17T06:21:03.736Z,100311.13
2022-08-17T06:24:16.020Z,100316.97
2022-08-17T06:27:32.767Z,100309.59
2022-08-17T06:30:59.559Z,100318.28
2022-08-17T06:34:07.059Z,100319.53
2022-08-17T06:37:27.419Z,100325.56
2022-08-17T06:40:45.639Z,100315.41
2022-08-17T06:44:10.253Z,100308.88
2022-08-17T06:47:28.568Z,100300.19
2022-08-17T06:50:48.270Z,100300.03
2022-08-17T06:54:02.747Z,100304.31
2022-08-17T06:57:16.668Z,100303.03
2022-08-17T07:00:29.879Z,100301.50
2022-08-17T07:03:54.479Z,100302.75
2022-08-17T07:07:26.305Z,100304.41
2022-08-17T07:10:36.017Z,100305.38
2022-08-17T07:13:51.492Z,100309.06
2022-08-17T07:16:56.284Z,100307.13
2022-08-17T07:20:06.819Z,100306.69
2022-08-17T07:23:27.517Z,100304.41
2022-08-17T07:26:29.957Z,100307.75
2022-08-17T07:29:44.634Z,100313.66
2022-08-17T07:32:50.803Z,100316.16
2022-08-17T07:35:53.228Z,100313.06
2022-08-17T07:38:58.017Z,100321.25
2022-08-17T07:42:04.725Z,100315.09
2022-08-17T07:45:28.057Z,100307.09
2022-08-17T07:48:36.073Z,100307.22
2022-08-17T07:51:44.131Z,100311.03
2022-08-17T07:54:46.251Z,100315.19
2022-08-17T07:57:57.371Z,100320.19
2022-08-17T08:01:06.665Z,100307.81
2022-08-17T08:04:59.080Z,100307.34
2022-08-17T08:07:52.363Z,100316.91
2022-08-17T08:11:06.544Z,100318.16
2022-08-17T08:14:28.576Z,100307.59
2022-08-17T08:17:36.561Z,100317.13
2022-08-17T08:21:09.819Z,100309.41
2022-08-17T08:24:36.649Z,100309.06
2022-08-17T08:28:03.171Z,100310.16
2022-08-17T08:31:15.833Z,100303.22
2022-08-17T08:34:58.622Z,100319.41
2022-08-17T08:38:30.145Z,100311.00
2022-08-17T08:41:38.737Z,100315.31
2022-08-17T08:45:00.585Z,100316.06
2022-08-17T08:48:53.808Z,100315.19
2022-08-17T08:52:03.003Z,100316.94
2022-08-17T08:55:23.651Z,100321.13
2022-08-17T08:58:43.582Z,100320.09
2022-08-17T09:02:16.760Z,100322.88
2022-08-17T09:05:21.935Z,100325.47
2022-08-17T09:08:38.310Z,100328.34
2022-08-17T09:12:02.893Z,100323.44
2022-08-17T09:15:27.438Z,100317.44
2022-08-17T09:19:02.629Z,100326.13
2022-08-17T09:22:00.899Z,100339.66
2022-08-17T09:25:03.287Z,100340.78
2022-08-17T09:28:19.198Z,100332.00
2022-08-17T09:31:33.939Z,100332.72
2022-08-17T09:34:50.220Z,100330.28
2022-08-17T09:38:32.532Z,100339.31
2022-08-17T09:41:56.526Z,100339.09
2022-08-17T09:45:09.815Z,100338.13
2022-08-17T09:48:31.026Z,100330.41
2022-08-17T09:51:49.407Z,100329.84
2022-08-17T09:54:54.605Z,100338.69
2022-08-17T09:58:21.285Z,100333.75
2022-08-17T10:01:47.513Z,100333.19
2022-08-17T10:05:04.720Z,100328.53
2022-08-17T10:08:30.481Z,100331.88
2022-08-17T10:11:54.255Z,100327.34
2022-08-17T10:15:22.423Z,100326.22
2022-08-17T10:18:46.728Z,100332.56
2022-08-17T10:22:32.674Z,100318.88
2022-08-17T10:25:56.194Z,100326.72
2022-08-17T10:29:20.868Z,100324.81
2022-08-17T10:32:34.876Z,100332.66
2022-08-17T10:36:14.409Z,100326.56
2022-08-17T10:39:27.370Z,100331.50
2022-08-17T10:42:36.212Z,100337.31
2022-08-17T10:45:51.502Z,100328.50
2022-08-17T10:49:20.966Z,100329.38
2022-08-17T10:52:24.855Z,100332.41
2022-08-17T10:55:27.806Z,100328.53
2022-08-17T10:58:38.268Z,100327.47
2022-08-17T11:01:42.087Z,100329.25
2022-08-17T11:04:53.415Z,100321.28
2022-08-17T11:08:14.218Z,100327.50
2022-08-17T11:12:00.742Z,100321.22
2022-08-17T11:15:27.995Z,100318.03
2022-08-17T11:18:42.127Z,100320.38
2022-08-17T11:22:22.100Z,100315.47
2022-08-17T11:25:45.017Z,100314.78
2022-08-17T11:28:52.902Z,100318.84
2022-08-17T11:32:32.045Z,100332.38
2022-08-17T11:35:47.158Z,100311.88
2022-08-17T11:39:25.005Z,100322.84
2022-08-17T11:42:45.926Z,100311.16
2022-08-17T11:46:19.595Z,100321.41
2022-08-17T11:49:58.683Z,100314.84
2022-08-17T11:53:01.123Z,100318.38
2022-08-17T11:56:09.573Z,100316.28
2022-08-17T11:59:33.838Z,100319.59
2022-08-17T12:02:47.828Z,100317.00
2022-08-17T12:06:00.583Z,100319.00
2022-08-17T12:09:10.827Z,100324.28
2022-08-17T12:12:35.803Z,100321.91
2022-08-17T12:15:42.672Z,100312.22
2022-08-17T12:19:02.271Z,100311.25
2022-08-17T12:22:14.731Z,100306.66
2022-08-17T12:25:44.542Z,100314.31
2022-08-17T12:28:49.176Z,100315.16
2022-08-17T12:31:54.261Z,100315.19
2022-08-17T12:34:56.590Z,100325.28
2022-08-17T12:37:59.893Z,100321.69
2022-08-17T12:41:25.748Z,100327.78
2022-08-17T12:44:40.492Z,100320.94
2022-08-17T12:48:11.045Z,100328.75
2022-08-17T12:51:13.436Z,100331.94
2022-08-17T12:54:52.701Z,100323.91
2022-08-17T12:57:58.412Z,100316.41
2022-08-17T13:01:09.199Z,100320.31
2022-08-17T13:04:14.476Z,100321.03
2022-08-17T13:07:32.726Z,100320.19
2022-08-17T13:10:36.339Z,100316.59
2022-08-17T13:13:41.925Z,100321.19
2022-08-17T13:16:53.879Z,100316.25
2022-08-17T13:19:56.254Z,100310.41
2022-08-17T13:23:01.364Z,100309.78
2022-08-17T13:26:09.460Z,100310.88
2022-08-17T13:29:44.285Z,100304.50
2022-08-17T13:32:47.326Z,100305.78
2022-08-17T13:35:51.938Z,100308.34
2022-08-17T13:39:07.384Z,100302.81
2022-08-17T13:42:50.226Z,100307.13
2022-08-17T13:46:08.376Z,100308.16
2022-08-17T13:49:11.933Z,100306.34
2022-08-17T13:52:38.348Z,100310.78
2022-08-17T13:55:48.307Z,100315.47
2022-08-17T13:58:56.432Z,100317.97
2022-08-17T14:01:59.251Z,100313.91
2022-08-17T14:05:02.069Z,100303.13
2022-08-17T14:08:11.376Z,100302.59
2022-08-17T14:11:13.412Z,100301.09
2022-08-17T14:14:16.951Z,100304.00
2022-08-17T14:17:20.152Z,100298.06
2022-08-17T14:20:22.684Z,100302.97
2022-08-17T14:23:25.240Z,100305.06
2022-08-17T14:26:27.587Z,100308.56
2022-08-17T14:29:31.999Z,100305.97
2022-08-17T14:32:36.767Z,100318.44
2022-08-17T14:35:38.895Z,100306.06
2022-08-17T14:38:41.277Z,100308.69
2022-08-17T14:41:43.740Z,100302.03
2022-08-17T14:44:46.140Z,100312.59
2022-08-17T14:47:48.216Z,100302.78
2022-08-17T14:50:50.559Z,100302.34
2022-08-17T14:53:52.632Z,100293.19
2022-08-17T14:56:57.033Z,100305.69
2022-08-17T15:00:17.415Z,100304.78
2022-08-17T15:03:19.772Z,100296.97
2022-08-17T15:06:22.382Z,100302.88
2022-08-17T15:09:24.679Z,100297.19
2022-08-17T15:12:32.076Z,100299.03
2022-08-17T15:15:35.308Z,100291.31
2022-08-17T15:18:37.396Z,100295.03
2022-08-17T15:21:39.867Z,100292.72
2022-08-17T15:24:42.003Z,100294.88
2022-08-17T15:27:44.553Z,100293.41
2022-08-17T15:30:46.819Z,100298.19
2022-08-17T15:33:49.611Z,100300.94
2022-08-17T15:36:52.462Z,100292.16
2022-08-17T15:39:55.200Z,100298.00
2022-08-17T15:42:57.817Z,100297.56
2022-08-17T15:46:16.401Z,100290.63
2022-08-17T15:49:18.909Z,100299.50
2022-08-17T15:52:24.953Z,100291.22
2022-08-17T15:55:29.606Z,100292.53
2022-08-17T15:58:36.337Z,100290.59
2022-08-17T16:03:01.271Z,100292.41
2022-08-17T16:05:10.133Z,100296.66
2022-08-17T16:08:15.891Z,100294.44
2022-08-17T16:11:22.641Z,100300.00
2022-08-17T16:14:33.824Z,100307.38
2022-08-17T16:17:39.987Z,100295.94
2022-08-17T16:20:43.585Z,100303.03
2022-08-17T16:23:47.654Z,100306.25
2022-08-17T16:26:49.808Z,100309.41
2022-08-17T16:29:52.097Z,100300.91
2022-08-17T16:32:59.598Z,100311.44
2022-08-17T16:36:01.906Z,100313.44
2022-08-17T16:39:04.805Z,100319.63
2022-08-17T16:42:25.098Z,100316.97
2022-08-17T16:45:31.423Z,100317.22
2022-08-17T16:48:33.767Z,100317.75
2022-08-17T16:51:36.479Z,100333.31
2022-08-17T16:54:44.420Z,100322.59
2022-08-17T16:57:50.599Z,100334.38
2022-08-17T17:00:54.537Z,100349.19
2022-08-17T17:04:00.065Z,100339.53
2022-08-17T17:07:33.903Z,100340.81
2022-08-17T17:10:51.485Z,100346.88
2022-08-17T17:14:02.079Z,100353.50
2022-08-17T17:17:36.368Z,100345.91
2022-08-17T17:20:58.962Z,100344.97
2022-08-17T17:24:04.951Z,100347.78
2022-08-17T17:27:22.897Z,100345.09
2022-08-17T17:30:50.243Z,100353.72
2022-08-17T17:33:56.035Z,100363.44
2022-08-17T17:37:06.153Z,100364.72
2022-08-17T17:40:23.565Z,100369.66
2022-08-17T17:43:38.775Z,100377.66
2022-08-17T17:46:50.288Z,100382.56
2022-08-17T17:49:52.485Z,100385.06
2022-08-17T17:53:02.098Z,100379.13
2022-08-17T17:56:17.189Z,100378.22
2022-08-17T17:59:48.555Z,100388.50
2022-08-17T18:03:16.721Z,100388.75
2022-08-17T18:06:51.299Z,100393.03
2022-08-17T18:10:01.133Z,100397.53
2022-08-17T18:13:22.892Z,100402.63
2022-08-17T18:16:31.879Z,100409.28
2022-08-17T18:19:34.501Z,100413.69
2022-08-17T18:22:36.536Z,100415.38
2022-08-17T18:26:01.978Z,100409.97
2022-08-17T18:29:30.231Z,100404.31
2022-08-17T18:32:37.077Z,100411.56
2022-08-17T18:35:39.110Z,100409.41
2022-08-17T18:38:43.167Z,100410.53
2022-08-17T18:41:49.083Z,100413.81
2022-08-17T18:44:55.106Z,100419.75
2022-08-17T18:47:57.837Z,100422.13
2022-08-17T18:51:41.397Z,100422.91
2022-08-17T18:55:06.070Z,100431.97
2022-08-17T18:58:18.290Z,100434.25
2022-08-17T19:01:21.468Z,100441.00
2022-08-17T19:05:02.613Z,100438.34
2022-08-17T19:08:29.432Z,100431.00
2022-08-17T19:11:35.870Z,100434.25
2022-08-17T19:14:38.418Z,100439.44
2022-08-17T19:18:00.138Z,100438.56
2022-08-17T19:21:08.318Z,100436.34
2022-08-17T19:24:26.343Z,100438.63
2022-08-17T19:27:42.005Z,100452.78
2022-08-17T19:30:49.214Z,100446.19
2022-08-17T19:33:51.852Z,100448.88
2022-08-17T19:37:00.735Z,100455.00
2022-08-17T19:40:08.774Z,100454.84
2022-08-17T19:44:07.835Z,100449.91
2022-08-17T19:47:53.955Z,100461.03
2022-08-17T19:51:06.803Z,100468.91
2022-08-17T19:54:35.053Z,100464.03
2022-08-17T19:58:17.752Z,100467.03
2022-08-17T20:01:48.898Z,100468.41
2022-08-17T20:04:53.577Z,100466.34
2022-08-17T20:08:09.264Z,100467.19
2022-08-17T20:11:22.072Z,100463.22
2022-08-17T20:14:36.722Z,100468.91
2022-08-17T20:17:42.573Z,100475.78
2022-08-17T20:20:47.675Z,100474.47
2022-08-17T20:24:16.231Z,100477.63
2022-08-17T20:28:06.324Z,100476.94
2022-08-17T20:31:48.837Z,100483.78
2022-08-17T20:35:20.161Z,100481.34
2022-08-17T20:38:38.858Z,100490.81
2022-08-17T20:42:03.948Z,100481.88
2022-08-17T20:45:26.344Z,100485.56
2022-08-17T20:48:38.317Z,100502.81
2022-08-17T20:52:02.344Z,100510.97
2022-08-17T20:55:05.377Z,100514.72
2022-08-17T20:58:23.297Z,100516.72
2022-08-17T21:01:39.761Z,100511.47
2022-08-17T21:05:00.204Z,100508.41
2022-08-17T21:08:17.097Z,100504.66
2022-08-17T21:12:03.481Z,100521.47
2022-08-17T21:14:57.384Z,100529.78
2022-08-17T21:18:25.643Z,100535.53
2022-08-17T21:21:50.235Z,100523.03
2022-08-17T21:25:22.512Z,100513.22
2022-08-17T21:28:34.264Z,100526.91
2022-08-17T21:32:09.465Z,100529.13
2022-08-17T21:35:12.372Z,100521.66
2022-08-17T21:38:16.277Z,100523.50
2022-08-17T21:41:24.437Z,100522.81
2022-08-17T21:44:49.680Z,100517.63
2022-08-17T21:48:12.750Z,100519.63
2022-08-17T21:51:22.793Z,100508.97
2022-08-17T21:54:36.434Z,100514.88
2022-08-17T21:57:41.536Z,100519.06
2022-08-17T22:01:27.465Z,100515.91
2022-08-17T22:04:30.876Z,100523.00
2022-08-17T22:07:50.648Z,100497.81
2022-08-17T22:11:00.941Z,100501.59
2022-08-17T22:14:05.686Z,100507.94
2022-08-17T22:17:21.739Z,100505.47
2022-08-17T22:20:23.788Z,100494.78
2022-08-17T22:23:51.899Z,100490.34
2022-08-17T22:27:03.332Z,100493.13
2022-08-17T22:30:18.045Z,100479.75
2022-08-17T22:33:49.367Z,100481.97
2022-08-17T22:37:19.064Z,100488.50
2022-08-17T22:40:32.604Z,100478.81
2022-08-17T22:43:38.250Z,100478.19
2022-08-17T22:47:04.463Z,100470.94
2022-08-17T22:50:21.505Z,100479.31
2022-08-17T22:53:42.290Z,100479.50
2022-08-17T22:57:20.953Z,100478.75
2022-08-17T23:00:42.917Z,100480.00
2022-08-17T23:04:09.187Z,100475.88
2022-08-17T23:07:11.760Z,100475.31
2022-08-17T23:10:14.942Z,100463.91
2022-08-17T23:13:16.948Z,100461.69
2022-08-17T23:16:21.109Z,100466.25
2022-08-17T23:19:23.127Z,100467.38
2022-08-17T23:22:25.452Z,100463.13
2022-08-17T23:25:30.753Z,100452.69
2022-08-17T23:28:37.358Z,100461.81
2022-08-17T23:31:40.393Z,100465.00
2022-08-17T23:34:44.197Z,100468.50
2022-08-17T23:37:46.286Z,100450.81
2022-08-17T23:40:48.857Z,100447.97
2022-08-17T23:43:54.987Z,100447.91
2022-08-17T23:46:57.705Z,100446.31
2022-08-17T23:50:01.598Z,100451.00
2022-08-17T23:53:06.042Z,100447.63
2022-08-17T23:56:11.325Z,100440.59
2022-08-17T23:59:15.172Z,100452.53
